Time;durP1;ratioP1;P1;durP2;ratioP2;P2;SDS_P1;SDS_P2;PMS_P1;PMS_P2;Temp;Humidity;BMP_temperature;BMP_pressure;BME280_temperature;BME280_humidity;BME280_pressure;Samples;Min_cycle;Max_cycle;Signal;HPM_P1;HPM_P2
2022/06/22 00:01:58;;;;;;;3.70;1.40;;;;;;;15.00;55.69;98958.75;1618258;86;21783;-78
2022/06/22 00:04:30;;;;;;;4.63;1.37;;;;;;;14.97;55.83;98954.02;1627253;87;21344;-77
2022/06/22 00:07:01;;;;;;;4.67;1.20;;;;;;;14.95;56.04;98962.17;1627031;87;21169;-78
2022/06/22 00:09:31;;;;;;;2.65;1.30;;;;;;;14.94;56.29;98962.73;1612646;87;21392;-78
2022/06/22 00:11:58;;;;;;;4.67;1.20;;;;;;;14.94;56.56;98954.67;1638833;87;21289;-78
2022/06/22 00:14:38;;;;;;;3.63;1.30;;;;;;;14.97;56.71;98958.59;1638732;87;21370;-78
2022/06/22 00:17:05;;;;;;;2.60;1.47;;;;;;;15.06;56.82;98953.95;1633252;86;21155;-79
2022/06/22 00:19:40;;;;;;;2.23;1.30;;;;;;;15.13;56.92;98944.80;1633920;87;21312;-79
2022/06/22 00:22:24;;;;;;;3.20;1.10;;;;;;;15.14;56.98;98936.99;1631491;87;21286;-79
2022/06/22 00:25:13;;;;;;;2.70;1.40;;;;;;;15.17;56.89;98932.30;1637291;87;21355;-78
2022/06/22 00:27:40;;;;;;;3.73;1.50;;;;;;;15.27;56.68;98924.94;1613917;87;21802;-80
2022/06/22 00:30:15;;;;;;;2.00;1.23;;;;;;;15.21;56.60;98919.77;1628273;87;21754;-79
2022/06/22 00:33:08;;;;;;;4.27;1.50;;;;;;;14.94;57.05;98914.91;1633079;87;21178;-79
2022/06/22 00:35:46;;;;;;;3.10;1.67;;;;;;;14.94;57.02;98906.28;1637746;85;21273;-78
2022/06/22 00:38:31;;;;;;;2.50;1.40;;;;;;;14.78;57.58;98906.05;1647130;85;21728;-80
2022/06/22 00:41:03;;;;;;;3.83;1.60;;;;;;;14.69;57.64;98894.55;1629902;87;21291;-80
2022/06/22 00:43:33;;;;;;;2.75;1.70;;;;;;;14.66;57.91;98897.88;1629647;86;21347;-79
2022/06/22 00:46:00;;;;;;;2.90;1.57;;;;;;;14.60;58.10;98899.18;1626214;86;21140;-79
2022/06/22 00:48:33;;;;;;;2.60;1.50;;;;;;;14.54;58.52;98895.09;1619520;88;21052;-80
2022/06/22 00:51:04;;;;;;;2.60;1.40;;;;;;;14.53;58.83;98897.56;1619177;88;21774;-78
2022/06/22 00:53:42;;;;;;;2.90;1.87;;;;;;;14.53;59.17;98894.31;1617799;86;21329;-78
2022/06/22 00:56:38;;;;;;;3.03;1.63;;;;;;;14.51;59.38;98888.49;1620093;88;21770;-79
2022/06/22 00:59:28;;;;;;;3.27;1.70;;;;;;;14.52;59.43;98894.65;1607414;88;21290;-79
2022/06/22 01:02:21;;;;;;;3.43;1.80;;;;;;;14.49;59.47;98887.20;1646953;85;21414;-79
2022/06/22 01:05:20;;;;;;;3.13;1.60;;;;;;;14.49;59.61;98881.27;1638332;87;21516;-78
2022/06/22 01:08:06;;;;;;;2.73;1.60;;;;;;;14.48;59.77;98881.61;1621159;87;21187;-78
2022/06/22 01:10:46;;;;;;;3.57;1.40;;;;;;;14.45;59.75;98875.53;1635992;87;21825;-78
2022/06/22 01:13:20;;;;;;;3.17;1.50;;;;;;;14.42;59.81;98869.47;1632960;87;21426;-79
2022/06/22 01:16:03;;;;;;;3.40;1.43;;;;;;;14.40;59.83;98871.67;1630928;87;21829;-82
2022/06/22 01:18:39;;;;;;;2.70;1.40;;;;;;;14.32;59.99;98869.27;1638138;86;21337;-81
2022/06/22 01:21:25;;;;;;;3.10;1.50;;;;;;;14.25;60.18;98867.65;1640414;87;21320;-80
2022/06/22 01:24:15;;;;;;;2.30;1.10;;;;;;;14.21;60.21;98864.79;1639310;87;21152;-82
2022/06/22 01:27:25;;;;;;;2.33;1.30;;;;;;;14.16;60.46;98864.98;1634998;87;21389;-79
2022/06/22 01:29:57;;;;;;;2.10;1.10;;;;;;;14.10;60.68;98870.30;1636956;86;21389;-80
2022/06/22 01:32:32;;;;;;;2.33;1.20;;;;;;;14.06;60.90;98868.80;1637787;86;26735;-79
2022/06/22 01:35:03;;;;;;;1.97;1.30;;;;;;;14.03;61.07;98863.30;1638633;87;21341;-80
2022/06/22 01:37:32;;;;;;;2.22;1.20;;;;;;;13.98;61.25;98858.87;1640873;86;21197;-81
2022/06/22 01:40:27;;;;;;;3.00;1.20;;;;;;;13.97;61.32;98862.67;1639754;86;21623;-81
2022/06/22 01:43:04;;;;;;;4.90;1.40;;;;;;;13.97;61.51;98860.55;1634870;86;22525;-78
2022/06/22 01:45:48;;;;;;;2.53;1.20;;;;;;;13.96;61.67;98857.64;1634771;87;21301;-78
2022/06/22 01:48:44;;;;;;;2.47;1.30;;;;;;;13.95;61.90;98857.38;1638248;87;21226;-79
2022/06/22 01:51:19;;;;;;;2.27;1.20;;;;;;;13.91;62.09;98855.11;1638000;86;21812;-78
2022/06/22 01:54:04;;;;;;;1.13;1.00;;;;;;;13.91;62.27;98852.43;1634295;86;21353;-79
2022/06/22 01:56:57;;;;;;;3.20;1.50;;;;;;;13.94;62.33;98850.45;1635688;86;21304;-79
2022/06/22 01:59:38;;;;;;;3.60;1.20;;;;;;;14.00;62.40;98839.77;1632973;87;21674;-80
2022/06/22 02:02:16;;;;;;;2.75;1.30;;;;;;;14.09;62.37;98839.19;1618353;87;21362;-79
2022/06/22 02:05:03;;;;;;;3.03;1.20;;;;;;;14.15;62.35;98845.16;1636672;86;21160;-79
2022/06/22 02:07:48;;;;;;;2.90;1.40;;;;;;;14.20;62.49;98843.64;1640190;86;21247;-78
2022/06/22 02:10:50;;;;;;;3.00;1.50;;;;;;;14.34;62.43;98845.55;1636934;86;21086;-79
2022/06/22 02:13:34;;;;;;;2.80;1.50;;;;;;;14.44;62.37;98842.48;1634935;87;21301;-80
2022/06/22 02:16:35;;;;;;;3.63;1.57;;;;;;;14.54;62.30;98845.39;1638191;87;21111;-79
2022/06/22 02:19:10;;;;;;;3.37;1.63;;;;;;;14.61;62.36;98843.00;1636658;87;21345;-78
2022/06/22 02:21:53;;;;;;;2.80;1.53;;;;;;;14.68;62.34;98844.62;1632971;87;21359;-80
2022/06/22 02:24:33;;;;;;;3.40;1.50;;;;;;;14.66;62.13;98844.70;1639274;87;21511;-79
2022/06/22 02:27:05;;;;;;;2.87;1.40;;;;;;;14.55;62.05;98844.30;1640424;86;21402;-79
2022/06/22 02:29:44;;;;;;;2.93;1.37;;;;;;;14.46;62.20;98838.16;1634847;86;21127;-79
2022/06/22 02:32:24;;;;;;;1.90;1.30;;;;;;;14.44;62.26;98845.73;1632347;86;21250;-80
2022/06/22 02:34:52;;;;;;;1.97;1.30;;;;;;;14.40;62.45;98844.81;1634038;87;21289;-80
2022/06/22 02:37:20;;;;;;;2.00;1.17;;;;;;;14.35;62.57;98851.73;1634746;87;21129;-80
2022/06/22 02:39:51;;;;;;;3.33;1.10;;;;;;;14.30;62.73;98848.09;1627066;87;21423;-81
2022/06/22 02:45:07;;;;;;;1.50;1.00;;;;;;;14.35;63.04;98842.33;1634836;87;21248;-79
2022/06/22 02:47:51;;;;;;;1.93;1.10;;;;;;;14.40;63.13;98837.54;1637910;87;21266;-82
2022/06/22 02:50:39;;;;;;;2.57;1.00;;;;;;;14.42;63.20;98830.52;1638971;87;21648;-78
2022/06/22 02:53:25;;;;;;;3.10;1.20;;;;;;;14.45;63.26;98836.59;1635847;87;21301;-80
2022/06/22 02:55:53;;;;;;;1.97;1.20;;;;;;;14.52;63.45;98843.60;1631001;87;21031;-81
2022/06/22 02:58:28;;;;;;;1.80;1.10;;;;;;;14.58;63.00;98839.62;1620565;87;21304;-81
2022/06/22 03:00:55;;;;;;;2.23;1.10;;;;;;;14.55;62.97;98840.27;1631703;87;21740;-81
2022/06/22 03:03:21;;;;;;;2.27;1.03;;;;;;;14.54;63.00;98840.02;1640601;87;21069;-82
2022/06/22 03:05:51;;;;;;;1.77;1.10;;;;;;;14.52;63.25;98848.98;1613861;87;21306;-80
2022/06/22 03:08:19;;;;;;;3.33;1.20;;;;;;;14.56;63.47;98832.99;1636915;87;21383;-81
2022/06/22 03:11:07;;;;;;;2.77;1.10;;;;;;;14.64;63.67;98843.70;1637316;87;21280;-82
2022/06/22 03:13:44;;;;;;;2.60;0.90;;;;;;;14.69;63.65;98840.80;1619137;87;21374;-80
2022/06/22 03:16:27;;;;;;;2.13;1.10;;;;;;;14.70;63.41;98843.72;1632041;86;21271;-79
2022/06/22 03:18:54;;;;;;;2.60;1.20;;;;;;;14.68;63.26;98837.90;1631260;86;21939;-82
2022/06/22 03:21:21;;;;;;;1.83;1.00;;;;;;;14.68;63.29;98837.90;1636231;87;21285;-82
2022/06/22 03:23:56;;;;;;;3.33;1.20;;;;;;;14.69;63.56;98835.43;1635975;86;21364;-80
2022/06/22 03:26:42;;;;;;;3.40;1.03;;;;;;;14.75;63.74;98831.45;1635717;86;21397;-81
2022/06/22 03:29:17;;;;;;;3.07;1.10;;;;;;;14.80;63.60;98829.11;1635433;87;21392;-80
2022/06/22 03:31:49;;;;;;;1.40;1.10;;;;;;;14.79;63.54;98826.20;1635837;86;21884;-84
2022/06/22 03:46:54;;;;;;;2.00;0.90;;;;;;;15.65;62.03;98826.00;1783104;79;22050;-83
2022/06/22 03:49:36;;;;;;;1.20;0.80;;;;;;;15.57;61.26;98823.42;1793452;79;21567;-82
2022/06/22 03:52:19;;;;;;;2.08;0.98;;;;;;;15.48;61.27;98824.84;1817474;77;22007;-79
2022/06/22 03:54:54;;;;;;;1.10;0.90;;;;;;;15.39;62.12;98824.91;1783162;79;21479;-80
2022/06/22 03:57:25;;;;;;;1.77;0.90;;;;;;;15.40;61.57;98838.61;1795666;77;22165;-82
2022/06/22 03:59:51;;;;;;;2.05;1.00;;;;;;;15.40;61.57;98838.61;1815945;79;21424;-80
2022/06/22 04:02:20;;;;;;;2.70;0.80;;;;;;;15.40;62.70;98827.04;1815653;79;20972;-80
2022/06/22 04:04:54;;;;;;;2.20;1.00;;;;;;;15.41;62.65;98831.33;1787125;79;21935;-81
2022/06/22 04:07:22;;;;;;;0.80;0.70;;;;;;;15.41;62.65;98831.33;1785358;80;21420;-81
2022/06/22 04:09:55;;;;;;;1.50;1.00;;;;;;;15.40;62.56;98836.45;1790982;78;21443;-82
2022/06/22 04:12:35;;;;;;;1.90;1.10;;;;;;;15.33;62.69;98844.28;1798556;79;21404;-81
2022/06/22 04:15:19;;;;;;;5.17;1.10;;;;;;;15.35;62.47;98836.11;1798581;79;21492;-81
2022/06/22 04:17:50;;;;;;;1.53;0.90;;;;;;;15.35;62.47;98836.11;1772280;79;21640;-80
2022/06/22 04:20:50;;;;;;;3.70;1.07;;;;;;;15.49;62.64;98839.86;1785709;79;21458;-80
2022/06/22 04:23:36;;;;;;;1.33;0.90;;;;;;;15.49;62.64;98839.86;1785470;80;21469;-81
2022/06/22 04:26:25;;;;;;;2.57;1.10;;;;;;;15.55;62.17;98837.19;1785434;80;21399;-82
2022/06/22 04:28:56;;;;;;;3.80;0.97;;;;;;;15.55;62.38;98840.45;1789645;79;21857;-81
2022/06/22 04:31:29;;;;;;;2.42;0.95;;;;;;;15.55;62.38;98840.45;1797482;79;21632;-82
2022/06/22 04:34:01;;;;;;;2.07;1.03;;;;;;;15.64;62.17;98848.66;1793427;79;21467;-81
2022/06/22 04:36:45;;;;;;;1.10;0.90;;;;;;;15.83;61.46;98848.75;1785338;79;21511;-81
2022/06/22 04:39:20;;;;;;;2.60;1.10;;;;;;;15.83;61.46;98848.75;1770092;79;21481;-80
2022/06/22 04:41:46;;;;;;;2.87;1.10;;;;;;;15.91;61.80;98846.52;1750526;80;21693;-83
2022/06/22 04:44:26;;;;;;;1.70;0.97;;;;;;;15.91;61.80;98846.52;1749929;82;21618;-82
2022/06/22 04:46:59;;;;;;;1.37;0.90;;;;;;;15.97;61.18;98846.52;1709528;82;21652;-82
2022/06/22 04:49:40;;;;;;;3.50;1.20;;;;;;;16.03;60.85;98838.46;1741128;81;21767;-82
2022/06/22 04:52:12;;;;;;;1.37;0.90;;;;;;;16.08;60.79;98846.87;1746998;82;22227;-81
2022/06/22 04:54:41;;;;;;;2.20;0.90;;;;;;;16.11;60.87;98849.67;1716514;83;21682;-82
2022/06/22 04:57:29;;;;;;;2.23;0.90;;;;;;;16.13;60.45;98851.48;1732234;82;21650;-83
2022/06/22 04:59:56;;;;;;;2.20;1.00;;;;;;;16.20;60.69;98854.97;1721332;83;21581;-82
2022/06/22 05:02:27;;;;;;;1.93;1.00;;;;;;;16.28;60.34;98858.67;1747050;80;21681;-82
2022/06/22 05:05:07;;;;;;;1.72;0.75;;;;;;;16.27;60.04;98861.14;1748855;82;21645;-82
2022/06/22 05:08:07;;;;;;;2.30;1.00;;;;;;;16.29;60.07;98871.04;1745362;82;21063;-81
2022/06/22 05:11:05;;;;;;;2.87;0.90;;;;;;;16.33;59.86;98867.33;1749926;81;22372;-82
2022/06/22 05:13:44;;;;;;;2.50;1.00;;;;;;;16.33;59.72;98865.20;1750312;82;21618;-81
2022/06/22 05:16:17;;;;;;;2.50;1.10;;;;;;;16.35;59.86;98868.32;1751420;80;21856;-80
2022/06/22 05:18:45;;;;;;;2.67;1.10;;;;;;;16.38;59.67;98861.70;1750102;82;21697;-80
2022/06/22 05:21:39;;;;;;;2.30;0.93;;;;;;;16.38;59.48;98860.91;1754889;81;21709;-81
2022/06/22 05:24:11;;;;;;;1.43;1.00;;;;;;;16.41;59.45;98854.28;1755474;81;21930;-81
2022/06/22 05:26:37;;;;;;;2.40;0.90;;;;;;;16.48;58.93;98855.08;1748551;82;21630;-82
2022/06/22 05:29:13;;;;;;;3.20;1.10;;;;;;;16.54;58.68;98858.34;1684939;81;21616;-81
2022/06/22 05:31:45;;;;;;;1.83;1.00;;;;;;;16.62;58.79;98862.27;1730947;80;21684;-83
2022/06/22 05:34:16;;;;;;;1.63;1.00;;;;;;;16.76;58.30;98863.86;1751964;82;21591;-80
2022/06/22 05:36:47;;;;;;;1.87;1.17;;;;;;;16.88;57.56;98869.23;1753487;82;21578;-80
2022/06/22 05:39:14;;;;;;;;;;;;;;;16.93;57.18;98858.20;1708221;83;21536;-81
2022/06/22 05:41:46;;;;;;;1.30;0.93;;;;;;;16.93;56.79;98858.20;1744278;82;20182;-82
2022/06/22 05:44:16;;;;;;;1.40;0.90;;;;;;;16.94;56.61;98854.94;1744792;82;21720;-81
2022/06/22 05:46:53;;;;;;;2.70;1.10;;;;;;;16.84;56.86;98861.02;1746317;80;21706;-82
2022/06/22 05:49:23;;;;;;;1.80;1.00;;;;;;;16.84;56.86;98861.02;1743369;82;21517;-80
2022/06/22 05:52:11;;;;;;;2.87;1.17;;;;;;;16.84;56.19;98862.94;1744177;82;21610;-81
2022/06/22 05:54:42;;;;;;;1.73;0.90;;;;;;;16.83;55.79;98860.02;1745776;82;21810;-82
2022/06/22 05:57:29;;;;;;;2.08;0.98;;;;;;;16.84;55.79;98856.97;1745620;81;21620;-81
2022/06/22 06:00:02;;;;;;;1.87;1.00;;;;;;;16.90;55.49;98852.70;1743068;82;20992;-83
2022/06/22 06:02:39;;;;;;;3.00;1.00;;;;;;;16.94;55.01;98847.63;1728428;82;21681;-83
2022/06/22 06:05:26;;;;;;;2.20;1.00;;;;;;;16.94;54.94;98852.24;1741947;82;21634;-80
2022/06/22 06:07:55;;;;;;;1.63;1.00;;;;;;;16.91;55.00;98859.66;1742852;82;21566;-80
2022/06/22 06:10:27;;;;;;;3.37;1.10;;;;;;;16.40;56.28;98864.85;1740153;82;21729;-80
2022/06/22 06:13:05;;;;;;;3.13;1.57;;;;;;;16.80;55.88;98871.48;1742660;82;22254;-79
2022/06/22 06:15:37;;;;;;;1.97;1.10;;;;;;;16.79;57.66;98863.19;1742420;82;21623;-76
2022/06/22 06:18:05;;;;;;;2.90;1.20;;;;;;;16.58;59.17;98870.01;1743148;82;21724;-77
2022/06/22 06:20:42;;;;;;;2.20;1.10;;;;;;;16.34;60.39;98870.23;1699473;84;21675;-79
2022/06/22 06:23:21;;;;;;;2.87;1.30;;;;;;;15.60;62.70;98879.27;1731016;82;21714;-80
2022/06/22 06:28:48;;;;;;;3.03;1.13;;;;;;;15.74;63.39;98875.75;1744206;82;22250;-79
2022/06/22 06:31:22;;;;;;;2.60;1.30;;;;;;;16.05;63.25;98873.91;1744229;82;21684;-80
2022/06/22 06:33:49;;;;;;;1.93;1.20;;;;;;;16.05;63.25;98873.91;1743602;82;21634;-81
2022/06/22 06:36:29;;;;;;;2.80;1.30;;;;;;;16.11;62.41;98868.53;1718158;82;21546;-80
2022/06/22 06:39:03;;;;;;;3.23;1.67;;;;;;;16.32;62.81;98878.42;1740035;82;21356;-81
2022/06/22 06:41:44;;;;;;;4.20;1.60;;;;;;;16.37;61.81;98867.44;1722506;82;22178;-78
2022/06/22 06:44:16;;;;;;;2.80;1.40;;;;;;;16.37;61.81;98867.44;1713644;83;21530;-80
2022/06/22 06:47:03;;;;;;;3.13;1.40;;;;;;;16.56;61.42;98876.31;1728831;82;21581;-79
2022/06/22 06:49:39;;;;;;;2.30;1.30;;;;;;;16.63;61.69;98878.66;1741335;82;21678;-81
2022/06/22 06:52:44;;;;;;;3.13;1.50;;;;;;;16.63;61.69;98878.66;1735392;82;21540;-80
2022/06/22 06:55:25;;;;;;;2.77;1.60;;;;;;;16.94;60.73;98886.73;1726845;82;21675;-80
2022/06/22 06:57:59;;;;;;;3.67;1.47;;;;;;;16.94;60.73;98886.73;1727050;82;21816;-77
2022/06/22 07:00:28;;;;;;;3.60;1.80;;;;;;;17.05;60.24;98891.13;1740760;81;21701;-79
2022/06/22 07:02:55;;;;;;;3.90;2.10;;;;;;;17.14;60.85;98899.06;1743657;82;22701;-79
2022/06/22 07:05:22;;;;;;;3.30;1.80;;;;;;;17.15;61.08;98904.70;1739899;82;22149;-78
2022/06/22 07:08:10;;;;;;;4.57;2.07;;;;;;;17.17;61.96;98907.26;1738889;80;21678;-78
2022/06/22 07:10:47;;;;;;;2.73;1.47;;;;;;;17.21;62.50;98904.66;1734626;82;21752;-79
2022/06/22 07:13:19;;;;;;;1.97;1.17;;;;;;;17.34;61.22;98903.50;1742527;82;21760;-79
2022/06/22 07:15:50;;;;;;;1.70;1.20;;;;;;;17.35;59.65;98903.17;1742081;81;21634;-79
2022/06/22 07:18:27;;;;;;;3.30;1.47;;;;;;;17.35;59.94;98911.84;1740856;82;21681;-81
2022/06/22 07:20:59;;;;;;;2.60;1.40;;;;;;;17.37;59.89;98913.61;1740137;80;22251;-79
2022/06/22 07:23:37;;;;;;;2.07;1.30;;;;;;;17.39;59.73;98911.37;1741398;80;21677;-81
2022/06/22 07:26:22;;;;;;;3.33;1.33;;;;;;;17.41;59.64;98915.09;1741753;82;21756;-82
2022/06/22 07:29:00;;;;;;;2.57;1.67;;;;;;;17.42;59.08;98919.35;1728458;81;21695;-81
2022/06/22 07:31:32;;;;;;;3.07;1.40;;;;;;;17.46;59.30;98916.96;1738765;82;21674;-78
2022/06/22 07:34:29;;;;;;;2.43;1.27;;;;;;;17.56;58.99;98921.88;1724772;82;21770;-79
2022/06/22 07:37:02;;;;;;;2.80;1.43;;;;;;;17.66;58.82;98922.52;1728769;82;22440;-80
2022/06/22 07:39:36;;;;;;;3.53;1.40;;;;;;;17.71;59.04;98923.64;1740632;82;21016;-76
2022/06/22 07:42:03;;;;;;;3.10;1.57;;;;;;;17.79;59.34;98930.25;1731418;82;21693;-78
2022/06/22 07:44:32;;;;;;;3.07;1.70;;;;;;;17.92;58.41;98925.58;1742595;82;21149;-76
2022/06/22 07:47:10;;;;;;;2.47;1.50;;;;;;;18.00;58.10;98924.65;1741249;82;21631;-76
2022/06/22 07:49:48;;;;;;;4.70;1.50;;;;;;;18.10;57.83;98923.36;1739294;82;21715;-74
2022/06/22 07:52:19;;;;;;;2.50;1.33;;;;;;;18.17;57.34;98917.35;1735361;82;21042;-76
2022/06/22 07:54:53;;;;;;;2.27;1.67;;;;;;;18.24;57.50;98922.94;1726745;81;21027;-78
2022/06/22 07:57:47;;;;;;;4.93;2.87;;;;;;;18.35;57.31;98923.97;1742311;82;21141;-76
2022/06/22 08:00:19;;;;;;;3.90;1.60;;;;;;;18.39;56.71;98923.48;1708310;82;21158;-78
2022/06/22 08:03:26;;;;;;;3.43;1.47;;;;;;;18.45;56.60;98924.02;1740813;82;21078;-78
2022/06/22 08:05:56;;;;;;;3.23;1.40;;;;;;;18.48;55.35;98931.43;1734410;82;21498;-79
2022/06/22 08:08:36;;;;;;;2.23;1.60;;;;;;;18.43;55.49;98924.38;1741659;82;21007;-78
2022/06/22 08:11:17;;;;;;;2.83;1.30;;;;;;;18.46;55.54;98925.61;1740042;82;21229;-78
2022/06/22 08:13:57;;;;;;;4.43;1.50;;;;;;;18.49;54.42;98935.70;1726021;82;21107;-77
2022/06/22 08:16:31;;;;;;;2.87;1.60;;;;;;;18.46;54.10;98942.61;1740568;81;20972;-78
2022/06/22 08:18:57;;;;;;;4.00;1.40;;;;;;;18.05;55.12;98949.27;1727899;82;21002;-79
2022/06/22 08:21:23;;;;;;;2.67;1.40;;;;;;;17.70;55.76;98951.75;1684809;82;21059;-79
2022/06/22 08:23:50;;;;;;;3.73;1.50;;;;;;;17.58;56.27;98956.08;1728747;81;21091;-80
2022/06/22 08:26:30;;;;;;;3.03;1.30;;;;;;;17.72;56.79;98944.09;1720568;82;21597;-79
2022/06/22 08:28:56;;;;;;;2.57;1.50;;;;;;;17.96;56.77;98942.66;1749596;82;21456;-78
2022/06/22 08:31:30;;;;;;;3.20;1.50;;;;;;;18.18;55.82;98945.36;1781466;80;21008;-79
2022/06/22 08:34:01;;;;;;;2.53;1.20;;;;;;;18.35;55.73;98944.81;1786402;80;21035;-79
2022/06/22 08:36:47;;;;;;;2.43;1.17;;;;;;;18.51;54.95;98934.80;1754433;80;21023;-80
2022/06/22 08:39:31;;;;;;;3.20;1.40;;;;;;;18.63;54.35;98939.34;1735498;80;21232;-78
2022/06/22 08:42:38;;;;;;;4.40;1.27;;;;;;;18.82;52.90;98944.84;1722591;81;21538;-82
2022/06/22 08:45:26;;;;;;;2.77;1.20;;;;;;;18.88;52.07;98951.53;1723222;82;21086;-79
2022/06/22 08:48:20;;;;;;;1.57;1.10;;;;;;;18.88;50.99;98944.77;1723564;82;20995;-80
2022/06/22 08:51:10;;;;;;;1.80;1.10;;;;;;;18.91;50.54;98950.05;1707724;82;21628;-75
2022/06/22 08:53:49;;;;;;;2.10;1.10;;;;;;;19.02;49.70;98949.75;1749510;82;21153;-80
2022/06/22 08:56:42;;;;;;;4.60;1.10;;;;;;;19.20;49.53;98950.91;1749824;82;21039;-81
2022/06/22 08:59:50;;;;;;;4.47;1.37;;;;;;;19.35;49.02;98949.87;1749536;81;21004;-78
2022/06/22 09:03:08;;;;;;;2.13;1.00;;;;;;;19.24;47.69;98955.04;1749977;82;21019;-84
2022/06/22 09:06:05;;;;;;;2.73;1.30;;;;;;;19.08;48.52;98957.00;1749095;81;21039;-81
2022/06/22 09:08:54;;;;;;;1.63;1.10;;;;;;;19.39;49.28;98950.16;1749981;82;21231;-83
2022/06/22 09:11:31;;;;;;;2.60;1.30;;;;;;;19.74;48.05;98945.27;1750072;82;21063;-81
2022/06/22 09:14:34;;;;;;;2.77;1.20;;;;;;;20.01;46.77;98942.70;1749968;82;20996;-83
2022/06/22 09:17:45;;;;;;;2.50;1.30;;;;;;;20.10;45.94;98944.58;1749850;82;21530;-85
2022/06/22 09:20:33;;;;;;;2.40;1.32;;;;;;;20.08;45.35;98940.11;1745687;80;21596;-82
2022/06/22 09:23:10;;;;;;;4.40;2.00;;;;;;;19.94;46.18;98954.19;1749190;82;21101;-84
2022/06/22 09:25:50;;;;;;;3.70;2.20;;;;;;;19.81;46.25;98961.68;1746842;81;21035;-83
2022/06/22 09:28:45;;;;;;;2.87;2.10;;;;;;;19.68;46.46;98960.27;1718839;82;21052;-83
2022/06/22 09:31:48;;;;;;;5.03;3.00;;;;;;;19.57;47.13;98960.56;1749754;80;20959;-82
2022/06/22 09:34:31;;;;;;;3.83;2.40;;;;;;;19.38;47.96;98960.78;1750271;81;21228;-84
2022/06/22 09:37:44;;;;;;;5.43;2.40;;;;;;;19.25;47.80;98966.11;1749857;81;21158;-82
2022/06/22 09:40:37;;;;;;;3.27;2.17;;;;;;;19.29;48.64;98953.42;1724069;80;21016;-83
2022/06/22 09:43:42;;;;;;;4.60;2.47;;;;;;;19.59;48.40;98956.94;1720061;83;21585;-83
2022/06/22 09:47:02;;;;;;;5.03;2.80;;;;;;;19.88;47.77;98950.20;1717503;82;21545;-81
2022/06/22 09:49:43;;;;;;;4.07;2.70;;;;;;;20.12;46.67;98949.08;1748287;82;21039;-79
2022/06/22 09:52:49;;;;;;;3.15;1.90;;;;;;;20.30;46.06;98946.67;1748733;81;21129;-83
2022/06/22 09:58:56;;;;;;;3.40;2.13;;;;;;;20.70;46.37;98940.80;1748462;81;21012;-80
2022/06/22 10:01:37;;;;;;;3.27;1.80;;;;;;;20.91;45.09;98945.76;1748186;82;21003;-87
2022/06/22 10:04:14;;;;;;;3.60;1.70;;;;;;;20.99;44.87;98939.84;1748863;82;21440;-79
2022/06/22 10:07:03;;;;;;;4.03;1.97;;;;;;;20.98;45.63;98945.86;1730223;82;21524;-82
2022/06/22 10:09:50;;;;;;;3.57;1.50;;;;;;;21.08;45.11;98952.59;1717826;83;21653;-81
2022/06/22 10:12:43;;;;;;;2.20;1.60;;;;;;;21.12;43.83;98942.56;1719725;82;21016;-84
2022/06/22 10:15:38;;;;;;;2.80;1.50;;;;;;;21.06;44.32;98948.13;1749578;81;21423;-86
2022/06/22 10:18:57;;;;;;;2.87;1.60;;;;;;;21.15;43.79;98943.77;1749362;82;21079;-86
2022/06/22 10:21:47;;;;;;;3.70;1.97;;;;;;;21.21;44.12;98943.66;1745629;82;21926;-85
2022/06/22 10:24:40;;;;;;;3.27;1.63;;;;;;;21.37;43.21;98957.09;1745085;82;21047;-84
2022/06/22 10:27:36;;;;;;;5.33;2.30;;;;;;;21.33;43.57;98957.59;1745420;82;21042;-89
2022/06/22 10:30:29;;;;;;;3.87;1.27;;;;;;;21.28;44.63;98968.19;1707858;84;20975;-84
2022/06/22 10:33:38;;;;;;;2.00;1.10;;;;;;;21.25;42.05;98975.13;1708322;84;21047;-88
2022/06/22 10:36:34;;;;;;;2.33;0.80;;;;;;;21.16;40.85;98967.84;1739391;82;21266;-88
2022/06/22 10:39:30;;;;;;;1.57;0.70;;;;;;;21.12;40.06;98967.57;1742777;82;21031;-90
2022/06/22 10:45:28;;;;;;;1.80;0.77;;;;;;;21.09;38.47;98966.36;1627012;88;21038;-89
2022/06/22 10:48:09;;;;;;;1.60;0.90;;;;;;;21.04;38.39;98970.77;1697495;83;21106;-87
2022/06/22 10:51:21;;;;;;;3.10;1.27;;;;;;;21.05;39.85;98965.53;1715745;83;21156;-84
2022/06/22 10:54:12;;;;;;;1.53;0.90;;;;;;;20.99;38.89;98972.42;1715207;83;21055;-86
2022/06/22 10:56:59;;;;;;;1.53;0.90;;;;;;;20.66;40.70;98971.14;1715620;83;21197;-88
2022/06/22 11:00:10;;;;;;;0.97;0.70;;;;;;;20.64;40.51;98983.52;1715371;83;21101;-86
2022/06/22 11:03:15;;;;;;;3.33;1.30;;;;;;;20.68;40.52;98976.22;1715853;83;21479;-83
2022/06/22 11:06:05;;;;;;;1.57;1.10;;;;;;;20.68;41.42;98970.80;1716910;83;22264;-88
2022/06/22 11:08:51;;;;;;;2.57;1.20;;;;;;;20.78;41.14;98979.67;1714833;83;21027;-87
2022/06/22 11:11:39;;;;;;;2.00;1.43;;;;;;;20.91;40.98;98984.33;1715488;83;21521;-80
2022/06/22 11:14:27;;;;;;;1.90;1.30;;;;;;;21.00;41.30;98978.86;1715356;83;21031;-82
2022/06/22 11:17:27;;;;;;;1.50;1.03;;;;;;;21.08;41.20;98987.88;1715278;83;21019;-87
2022/06/22 11:20:42;;;;;;;2.97;1.50;;;;;;;21.16;41.20;98979.26;1727064;82;21517;-84
2022/06/22 11:23:18;;;;;;;2.17;1.10;;;;;;;21.29;40.99;98984.12;1745811;82;21011;-89
2022/06/22 11:32:31;;;;;;;1.47;1.10;;;;;;;21.73;38.42;98975.98;1727412;82;21115;-86
2022/06/22 11:35:48;;;;;;;3.23;1.00;;;;;;;21.84;37.43;98991.05;1744844;82;21247;-87
2022/06/22 11:38:43;;;;;;;1.60;1.07;;;;;;;21.77;37.65;98974.86;1742916;82;21538;-85
2022/06/22 11:41:45;;;;;;;1.20;0.90;;;;;;;21.71;38.12;98980.99;1706715;83;20999;-87
2022/06/22 11:48:32;;;;;;;2.17;1.10;;;;;;;21.62;39.08;98986.73;1724219;82;21197;-85
2022/06/22 11:51:41;;;;;;;1.80;1.20;;;;;;;21.75;39.18;98973.66;1743872;82;21521;-85
2022/06/22 11:54:56;;;;;;;1.23;1.10;;;;;;;21.86;38.93;98978.66;1743398;82;21491;-84
2022/06/22 11:57:57;;;;;;;2.10;0.90;;;;;;;21.76;38.78;98977.96;1743595;82;21019;-85
2022/06/22 12:01:01;;;;;;;4.77;1.40;;;;;;;21.54;39.78;98986.41;1743593;82;21046;-80
2022/06/22 12:04:05;;;;;;;2.67;1.43;;;;;;;21.18;44.33;99001.41;1743352;82;21024;-78
2022/06/22 12:19:41;;;;;;;1.33;1.20;;;;;;;18.95;54.30;99005.02;1782658;80;22458;-81
2022/06/22 12:22:17;;;;;;;2.47;1.33;;;;;;;19.08;51.74;99020.02;1823530;78;20963;-83
2022/06/22 12:25:04;;;;;;;2.07;1.10;;;;;;;19.25;50.53;99001.30;1822921;78;21102;-84
2022/06/22 12:27:37;;;;;;;1.50;1.03;;;;;;;19.48;48.59;98991.12;1798160;78;21070;-82
2022/06/22 12:30:12;;;;;;;2.97;1.10;;;;;;;19.73;46.67;99000.59;1789849;80;21019;-81
2022/06/22 12:33:18;;;;;;;2.20;1.10;;;;;;;19.87;45.81;99004.16;1821078;78;21011;-81
2022/06/22 12:35:57;;;;;;;1.93;1.30;;;;;;;19.88;45.26;99009.23;1823331;77;21063;-81
2022/06/22 12:38:37;;;;;;;2.13;1.10;;;;;;;19.77;45.04;99023.11;1823408;78;21764;-79
2022/06/22 12:41:40;;;;;;;1.57;1.00;;;;;;;19.67;45.87;99019.05;1818946;78;20959;-80
2022/06/22 12:44:33;;;;;;;2.13;1.03;;;;;;;19.64;46.03;99024.39;1815042;79;20944;-83
2022/06/22 12:47:55;;;;;;;1.80;1.03;;;;;;;20.21;44.82;99033.68;1816168;77;21063;-83
2022/06/22 12:50:46;;;;;;;;;;;;;;;19.62;46.11;99040.20;1729199;82;21055;-86
2022/06/22 12:53:37;;;;;;;1.73;0.80;;;;;;;19.74;46.06;99036.02;1691419;84;21133;-88
2022/06/22 12:56:30;;;;;;;1.70;0.80;;;;;;;19.85;43.06;99036.26;1812561;78;22212;-90
2022/06/22 12:59:02;;;;;;;3.33;0.90;;;;;;;19.81;42.78;99042.16;1791104;80;20932;-86
2022/06/22 13:01:29;;;;;;;1.20;0.80;;;;;;;19.81;42.38;99032.13;1791095;78;20998;-83
2022/06/22 13:04:06;;;;;;;1.43;0.80;;;;;;;19.96;42.40;99036.47;1791084;80;20935;-85
2022/06/22 13:06:33;;;;;;;1.33;0.90;;;;;;;20.13;42.07;99048.22;1790229;80;21629;-85
2022/06/22 13:09:02;;;;;;;1.67;0.80;;;;;;;20.44;41.28;99047.86;1790934;80;20995;-88
2022/06/22 13:11:29;;;;;;;1.87;0.90;;;;;;;20.77;41.42;99044.02;1809020;78;21014;-80
2022/06/22 13:14:14;;;;;;;3.30;1.13;;;;;;;21.12;43.55;99047.66;1823741;78;21431;-83
2022/06/22 13:16:57;;;;;;;2.73;1.17;;;;;;;21.23;45.72;99054.84;1823077;78;21031;-79
2022/06/22 13:20:08;;;;;;;2.75;1.10;;;;;;;21.23;44.21;99049.98;1823382;78;21251;-84
2022/06/22 13:23:18;;;;;;;1.17;1.00;;;;;;;21.31;45.47;99041.56;1822864;78;21066;-83
2022/06/22 13:26:26;;;;;;;1.07;0.80;;;;;;;21.68;44.49;99040.93;1823353;77;21018;-83
2022/06/22 13:29:27;;;;;;;2.40;1.23;;;;;;;21.89;42.68;99044.52;1821324;78;20991;-86
2022/06/22 13:31:58;;;;;;;2.15;1.20;;;;;;;21.81;42.84;99055.08;1813894;79;20924;-84
2022/06/22 13:34:29;;;;;;;2.03;1.17;;;;;;;21.63;42.76;99066.30;1815220;79;21099;-87